sensor_id;sensor_type;location;lat;lon;timestamp;P1;durP1;ratioP1;P2;durP2;ratioP2
69392;SDS011;56582;44.624;20.378;2023-04-06T00:00:48;30.63;;;16.47;;
69392;SDS011;56582;44.624;20.378;2023-04-06T00:03:14;26.52;;;15.45;;
69392;SDS011;56582;44.624;20.378;2023-04-06T00:05:40;30.88;;;17.95;;
69392;SDS011;56582;44.624;20.378;2023-04-06T00:08:06;28.10;;;16.38;;
69392;SDS011;56582;44.624;20.378;2023-04-06T00:10:32;32.58;;;18.05;;
69392;SDS011;56582;44.624;20.378;2023-04-06T00:12:58;41.00;;;19.40;;
69392;SDS011;56582;44.624;20.378;2023-04-06T00:15:24;40.13;;;20.63;;
69392;SDS011;56582;44.624;20.378;2023-04-06T00:17:50;30.60;;;18.30;;
69392;SDS011;56582;44.624;20.378;2023-04-06T00:20:15;28.92;;;17.55;;
69392;SDS011;56582;44.624;20.378;2023-04-06T00:22:42;30.30;;;17.25;;
69392;SDS011;56582;44.624;20.378;2023-04-06T00:25:08;28.70;;;15.63;;
69392;SDS011;56582;44.624;20.378;2023-04-06T00:27:35;28.90;;;15.60;;
69392;SDS011;56582;44.624;20.378;2023-04-06T00:30:00;28.20;;;16.90;;
69392;SDS011;56582;44.624;20.378;2023-04-06T00:32:26;29.57;;;16.90;;
69392;SDS011;56582;44.624;20.378;2023-04-06T00:34:52;25.60;;;16.63;;
69392;SDS011;56582;44.624;20.378;2023-04-06T00:37:18;29.30;;;16.47;;
69392;SDS011;56582;44.624;20.378;2023-04-06T00:39:44;29.35;;;18.20;;
69392;SDS011;56582;44.624;20.378;2023-04-06T00:42:11;27.63;;;16.43;;
69392;SDS011;56582;44.624;20.378;2023-04-06T00:44:42;28.80;;;16.63;;
69392;SDS011;56582;44.624;20.378;2023-04-06T00:47:08;27.73;;;17.13;;
69392;SDS011;56582;44.624;20.378;2023-04-06T00:49:34;25.38;;;16.25;;
69392;SDS011;56582;44.624;20.378;2023-04-06T00:52:00;25.77;;;15.13;;
69392;SDS011;56582;44.624;20.378;2023-04-06T00:54:26;36.15;;;19.42;;
69392;SDS011;56582;44.624;20.378;2023-04-06T00:56:52;29.50;;;17.02;;
69392;SDS011;56582;44.624;20.378;2023-04-06T00:59:18;28.33;;;16.53;;
69392;SDS011;56582;44.624;20.378;2023-04-06T01:01:43;27.08;;;17.33;;
69392;SDS011;56582;44.624;20.378;2023-04-06T01:04:09;25.83;;;16.53;;
69392;SDS011;56582;44.624;20.378;2023-04-06T01:06:35;26.20;;;16.90;;
69392;SDS011;56582;44.624;20.378;2023-04-06T01:09:00;25.10;;;15.83;;
69392;SDS011;56582;44.624;20.378;2023-04-06T01:11:26;25.30;;;16.50;;
69392;SDS011;56582;44.624;20.378;2023-04-06T01:13:52;28.52;;;15.82;;
69392;SDS011;56582;44.624;20.378;2023-04-06T01:16:17;24.60;;;15.43;;
69392;SDS011;56582;44.624;20.378;2023-04-06T01:18:43;25.57;;;14.77;;
69392;SDS011;56582;44.624;20.378;2023-04-06T01:21:09;27.63;;;16.40;;
69392;SDS011;56582;44.624;20.378;2023-04-06T01:23:40;25.20;;;15.88;;
69392;SDS011;56582;44.624;20.378;2023-04-06T01:26:07;25.63;;;14.55;;
69392;SDS011;56582;44.624;20.378;2023-04-06T01:28:33;24.77;;;16.10;;
69392;SDS011;56582;44.624;20.378;2023-04-06T01:30:58;27.77;;;16.17;;
69392;SDS011;56582;44.624;20.378;2023-04-06T01:33:23;26.23;;;16.70;;
69392;SDS011;56582;44.624;20.378;2023-04-06T01:35:49;25.47;;;14.13;;
69392;SDS011;56582;44.624;20.378;2023-04-06T01:38:15;22.23;;;13.35;;
69392;SDS011;56582;44.624;20.378;2023-04-06T01:40:40;24.17;;;14.37;;
69392;SDS011;56582;44.624;20.378;2023-04-06T01:43:06;25.07;;;15.57;;
69392;SDS011;56582;44.624;20.378;2023-04-06T01:45:31;32.70;;;17.40;;
69392;SDS011;56582;44.624;20.378;2023-04-06T01:47:57;31.83;;;17.57;;
69392;SDS011;56582;44.624;20.378;2023-04-06T01:50:22;31.03;;;16.70;;
69392;SDS011;56582;44.624;20.378;2023-04-06T01:52:48;28.02;;;16.48;;
69392;SDS011;56582;44.624;20.378;2023-04-06T01:55:13;23.47;;;14.93;;
69392;SDS011;56582;44.624;20.378;2023-04-06T01:57:48;37.33;;;22.50;;
69392;SDS011;56582;44.624;20.378;2023-04-06T02:00:14;44.40;;;26.40;;
69392;SDS011;56582;44.624;20.378;2023-04-06T02:02:40;44.38;;;24.48;;
69392;SDS011;56582;44.624;20.378;2023-04-06T02:05:06;34.50;;;19.37;;
69392;SDS011;56582;44.624;20.378;2023-04-06T02:07:32;34.28;;;18.60;;
69392;SDS011;56582;44.624;20.378;2023-04-06T02:09:58;29.33;;;18.77;;
69392;SDS011;56582;44.624;20.378;2023-04-06T02:12:29;30.63;;;17.85;;
69392;SDS011;56582;44.624;20.378;2023-04-06T02:14:55;31.10;;;18.92;;
69392;SDS011;56582;44.624;20.378;2023-04-06T02:17:20;24.80;;;17.27;;
69392;SDS011;56582;44.624;20.378;2023-04-06T02:19:46;31.50;;;18.03;;
69392;SDS011;56582;44.624;20.378;2023-04-06T02:22:11;28.07;;;17.13;;
69392;SDS011;56582;44.624;20.378;2023-04-06T02:24:37;23.65;;;13.52;;
69392;SDS011;56582;44.624;20.378;2023-04-06T02:27:02;21.30;;;13.07;;
69392;SDS011;56582;44.624;20.378;2023-04-06T02:29:28;27.70;;;15.63;;
69392;SDS011;56582;44.624;20.378;2023-04-06T02:31:53;25.97;;;15.27;;
69392;SDS011;56582;44.624;20.378;2023-04-06T02:34:22;23.60;;;15.23;;
69392;SDS011;56582;44.624;20.378;2023-04-06T02:36:51;23.15;;;14.70;;
69392;SDS011;56582;44.624;20.378;2023-04-06T02:39:23;23.07;;;15.70;;
69392;SDS011;56582;44.624;20.378;2023-04-06T02:41:49;22.88;;;14.95;;
69392;SDS011;56582;44.624;20.378;2023-04-06T02:44:15;23.23;;;14.63;;
69392;SDS011;56582;44.624;20.378;2023-04-06T02:46:40;25.17;;;13.87;;
69392;SDS011;56582;44.624;20.378;2023-04-06T02:49:06;23.30;;;14.82;;
69392;SDS011;56582;44.624;20.378;2023-04-06T02:51:31;27.63;;;15.83;;
69392;SDS011;56582;44.624;20.378;2023-04-06T02:53:58;26.92;;;16.17;;
69392;SDS011;56582;44.624;20.378;2023-04-06T02:56:23;30.83;;;17.53;;
69392;SDS011;56582;44.624;20.378;2023-04-06T02:58:49;30.13;;;17.42;;
69392;SDS011;56582;44.624;20.378;2023-04-06T03:01:15;35.88;;;19.90;;
69392;SDS011;56582;44.624;20.378;2023-04-06T03:03:41;33.58;;;17.75;;
69392;SDS011;56582;44.624;20.378;2023-04-06T03:06:07;45.23;;;22.10;;
69392;SDS011;56582;44.624;20.378;2023-04-06T03:08:32;41.03;;;20.30;;
69392;SDS011;56582;44.624;20.378;2023-04-06T03:10:58;34.63;;;18.88;;
69392;SDS011;56582;44.624;20.378;2023-04-06T03:13:23;39.83;;;20.67;;
69392;SDS011;56582;44.624;20.378;2023-04-06T03:15:49;27.57;;;16.53;;
69392;SDS011;56582;44.624;20.378;2023-04-06T03:18:14;34.78;;;18.33;;
69392;SDS011;56582;44.624;20.378;2023-04-06T03:20:40;27.10;;;15.57;;
69392;SDS011;56582;44.624;20.378;2023-04-06T03:23:05;27.33;;;16.27;;
69392;SDS011;56582;44.624;20.378;2023-04-06T03:25:31;26.02;;;15.43;;
69392;SDS011;56582;44.624;20.378;2023-04-06T03:27:57;23.17;;;14.73;;
69392;SDS011;56582;44.624;20.378;2023-04-06T03:30:22;23.67;;;15.30;;
69392;SDS011;56582;44.624;20.378;2023-04-06T03:32:48;27.10;;;15.10;;
69392;SDS011;56582;44.624;20.378;2023-04-06T03:35:13;34.03;;;17.70;;
69392;SDS011;56582;44.624;20.378;2023-04-06T03:37:39;28.50;;;17.60;;
69392;SDS011;56582;44.624;20.378;2023-04-06T03:40:04;34.22;;;18.13;;
69392;SDS011;56582;44.624;20.378;2023-04-06T03:42:31;31.27;;;16.98;;
69392;SDS011;56582;44.624;20.378;2023-04-06T03:44:58;22.43;;;15.17;;
69392;SDS011;56582;44.624;20.378;2023-04-06T03:47:23;25.17;;;15.93;;
69392;SDS011;56582;44.624;20.378;2023-04-06T03:49:49;23.70;;;15.00;;
69392;SDS011;56582;44.624;20.378;2023-04-06T03:52:15;26.93;;;15.60;;
69392;SDS011;56582;44.624;20.378;2023-04-06T03:54:40;24.23;;;15.30;;
69392;SDS011;56582;44.624;20.378;2023-04-06T03:57:06;26.75;;;15.75;;
69392;SDS011;56582;44.624;20.378;2023-04-06T03:59:31;26.00;;;15.87;;
69392;SDS011;56582;44.624;20.378;2023-04-06T04:01:57;24.53;;;14.27;;
69392;SDS011;56582;44.624;20.378;2023-04-06T04:04:22;26.73;;;16.40;;
69392;SDS011;56582;44.624;20.378;2023-04-06T04:06:47;24.67;;;16.10;;
69392;SDS011;56582;44.624;20.378;2023-04-06T04:09:13;26.83;;;15.37;;
69392;SDS011;56582;44.624;20.378;2023-04-06T04:11:38;25.57;;;14.87;;
69392;SDS011;56582;44.624;20.378;2023-04-06T04:14:04;27.85;;;13.88;;
69392;SDS011;56582;44.624;20.378;2023-04-06T04:16:30;27.00;;;15.93;;
69392;SDS011;56582;44.624;20.378;2023-04-06T04:18:55;30.42;;;16.75;;
69392;SDS011;56582;44.624;20.378;2023-04-06T04:21:23;42.07;;;20.23;;
69392;SDS011;56582;44.624;20.378;2023-04-06T04:23:48;76.03;;;31.60;;
69392;SDS011;56582;44.624;20.378;2023-04-06T04:26:14;72.73;;;29.00;;
69392;SDS011;56582;44.624;20.378;2023-04-06T04:28:39;41.20;;;21.03;;
69392;SDS011;56582;44.624;20.378;2023-04-06T04:31:05;35.00;;;21.03;;
69392;SDS011;56582;44.624;20.378;2023-04-06T04:33:30;42.00;;;22.93;;
69392;SDS011;56582;44.624;20.378;2023-04-06T04:35:56;30.52;;;19.00;;
69392;SDS011;56582;44.624;20.378;2023-04-06T04:38:21;30.00;;;15.57;;
69392;SDS011;56582;44.624;20.378;2023-04-06T04:40:47;26.90;;;15.57;;
69392;SDS011;56582;44.624;20.378;2023-04-06T04:43:12;27.03;;;16.77;;
69392;SDS011;56582;44.624;20.378;2023-04-06T04:45:38;31.35;;;18.10;;
69392;SDS011;56582;44.624;20.378;2023-04-06T04:48:03;33.30;;;18.80;;
69392;SDS011;56582;44.624;20.378;2023-04-06T04:50:30;29.38;;;16.90;;
69392;SDS011;56582;44.624;20.378;2023-04-06T04:52:55;27.75;;;17.40;;
69392;SDS011;56582;44.624;20.378;2023-04-06T04:55:21;26.27;;;16.33;;
69392;SDS011;56582;44.624;20.378;2023-04-06T04:57:46;31.80;;;19.33;;
69392;SDS011;56582;44.624;20.378;2023-04-06T05:00:12;31.37;;;19.33;;
69392;SDS011;56582;44.624;20.378;2023-04-06T05:02:38;32.85;;;19.95;;
69392;SDS011;56582;44.624;20.378;2023-04-06T05:05:04;35.33;;;19.93;;
69392;SDS011;56582;44.624;20.378;2023-04-06T05:07:30;30.42;;;17.80;;
69392;SDS011;56582;44.624;20.378;2023-04-06T05:09:55;39.93;;;20.97;;
69392;SDS011;56582;44.624;20.378;2023-04-06T05:12:21;41.63;;;21.95;;
69392;SDS011;56582;44.624;20.378;2023-04-06T05:14:46;39.57;;;21.00;;
69392;SDS011;56582;44.624;20.378;2023-04-06T05:17:12;32.83;;;18.60;;
69392;SDS011;56582;44.624;20.378;2023-04-06T05:19:37;52.88;;;23.33;;
69392;SDS011;56582;44.624;20.378;2023-04-06T05:22:03;47.23;;;24.83;;
69392;SDS011;56582;44.624;20.378;2023-04-06T05:24:29;41.72;;;23.08;;
69392;SDS011;56582;44.624;20.378;2023-04-06T05:26:54;38.00;;;21.43;;
69392;SDS011;56582;44.624;20.378;2023-04-06T05:29:20;32.65;;;19.38;;
69392;SDS011;56582;44.624;20.378;2023-04-06T05:31:46;30.27;;;18.87;;
69392;SDS011;56582;44.624;20.378;2023-04-06T05:34:11;32.72;;;17.58;;
69392;SDS011;56582;44.624;20.378;2023-04-06T05:36:37;30.87;;;16.70;;
69392;SDS011;56582;44.624;20.378;2023-04-06T05:39:05;27.77;;;16.17;;
69392;SDS011;56582;44.624;20.378;2023-04-06T05:41:30;28.57;;;16.63;;
69392;SDS011;56582;44.624;20.378;2023-04-06T05:43:56;32.53;;;15.50;;
69392;SDS011;56582;44.624;20.378;2023-04-06T05:46:21;31.83;;;17.33;;
69392;SDS011;56582;44.624;20.378;2023-04-06T05:48:47;28.77;;;17.70;;
69392;SDS011;56582;44.624;20.378;2023-04-06T05:51:13;28.67;;;17.77;;
69392;SDS011;56582;44.624;20.378;2023-04-06T05:53:38;30.60;;;18.10;;
69392;SDS011;56582;44.624;20.378;2023-04-06T05:56:04;27.58;;;16.25;;
69392;SDS011;56582;44.624;20.378;2023-04-06T05:58:30;28.50;;;16.75;;
69392;SDS011;56582;44.624;20.378;2023-04-06T06:00:59;28.60;;;16.57;;
69392;SDS011;56582;44.624;20.378;2023-04-06T06:03:25;28.55;;;16.90;;
69392;SDS011;56582;44.624;20.378;2023-04-06T06:05:51;28.23;;;17.63;;
69392;SDS011;56582;44.624;20.378;2023-04-06T06:08:16;28.47;;;16.83;;
69392;SDS011;56582;44.624;20.378;2023-04-06T06:10:42;24.30;;;15.33;;
69392;SDS011;56582;44.624;20.378;2023-04-06T06:13:08;31.75;;;16.15;;
69392;SDS011;56582;44.624;20.378;2023-04-06T06:15:33;29.58;;;14.27;;
69392;SDS011;56582;44.624;20.378;2023-04-06T06:17:59;23.27;;;13.13;;
69392;SDS011;56582;44.624;20.378;2023-04-06T06:20:25;27.40;;;16.48;;
69392;SDS011;56582;44.624;20.378;2023-04-06T06:22:51;25.08;;;15.98;;
69392;SDS011;56582;44.624;20.378;2023-04-06T06:25:17;26.30;;;13.77;;
69392;SDS011;56582;44.624;20.378;2023-04-06T06:27:43;30.20;;;18.48;;
69392;SDS011;56582;44.624;20.378;2023-04-06T06:30:09;28.40;;;18.93;;
69392;SDS011;56582;44.624;20.378;2023-04-06T06:32:35;26.40;;;15.45;;
69392;SDS011;56582;44.624;20.378;2023-04-06T06:35:00;28.47;;;17.33;;
69392;SDS011;56582;44.624;20.378;2023-04-06T06:37:25;32.50;;;19.13;;
69392;SDS011;56582;44.624;20.378;2023-04-06T06:39:51;27.47;;;16.60;;
69392;SDS011;56582;44.624;20.378;2023-04-06T06:42:16;32.47;;;17.53;;
69392;SDS011;56582;44.624;20.378;2023-04-06T06:44:42;55.92;;;25.92;;
69392;SDS011;56582;44.624;20.378;2023-04-06T06:47:07;85.77;;;35.93;;
69392;SDS011;56582;44.624;20.378;2023-04-06T06:49:33;60.37;;;27.20;;
69392;SDS011;56582;44.624;20.378;2023-04-06T06:51:58;54.70;;;24.00;;
69392;SDS011;56582;44.624;20.378;2023-04-06T06:54:24;43.75;;;21.50;;
69392;SDS011;56582;44.624;20.378;2023-04-06T06:56:49;31.77;;;17.37;;
69392;SDS011;56582;44.624;20.378;2023-04-06T06:59:15;42.57;;;21.07;;
69392;SDS011;56582;44.624;20.378;2023-04-06T07:01:41;43.83;;;21.87;;
69392;SDS011;56582;44.624;20.378;2023-04-06T07:04:06;52.35;;;27.42;;
69392;SDS011;56582;44.624;20.378;2023-04-06T07:06:34;50.67;;;26.85;;
69392;SDS011;56582;44.624;20.378;2023-04-06T07:09:00;39.03;;;24.07;;
69392;SDS011;56582;44.624;20.378;2023-04-06T07:11:28;34.17;;;20.23;;
69392;SDS011;56582;44.624;20.378;2023-04-06T07:13:53;29.40;;;17.02;;
69392;SDS011;56582;44.624;20.378;2023-04-06T07:16:19;28.00;;;17.90;;
69392;SDS011;56582;44.624;20.378;2023-04-06T07:18:45;37.10;;;20.73;;
69392;SDS011;56582;44.624;20.378;2023-04-06T07:21:11;27.33;;;14.53;;
69392;SDS011;56582;44.624;20.378;2023-04-06T07:23:36;29.98;;;18.00;;
69392;SDS011;56582;44.624;20.378;2023-04-06T07:26:02;33.27;;;17.50;;
69392;SDS011;56582;44.624;20.378;2023-04-06T07:28:27;25.30;;;15.93;;
69392;SDS011;56582;44.624;20.378;2023-04-06T07:30:53;29.50;;;19.60;;
69392;SDS011;56582;44.624;20.378;2023-04-06T07:33:19;27.50;;;18.00;;
69392;SDS011;56582;44.624;20.378;2023-04-06T07:35:45;26.77;;;16.90;;
69392;SDS011;56582;44.624;20.378;2023-04-06T07:38:11;26.90;;;17.08;;
69392;SDS011;56582;44.624;20.378;2023-04-06T07:40:36;22.77;;;14.23;;
69392;SDS011;56582;44.624;20.378;2023-04-06T07:43:02;30.43;;;19.83;;
69392;SDS011;56582;44.624;20.378;2023-04-06T07:45:28;28.20;;;17.33;;
69392;SDS011;56582;44.624;20.378;2023-04-06T07:47:53;23.80;;;15.67;;
69392;SDS011;56582;44.624;20.378;2023-04-06T07:50:19;27.57;;;16.97;;
69392;SDS011;56582;44.624;20.378;2023-04-06T07:52:45;23.67;;;17.77;;
69392;SDS011;56582;44.624;20.378;2023-04-06T07:55:10;31.67;;;20.20;;
69392;SDS011;56582;44.624;20.378;2023-04-06T07:57:36;34.40;;;23.63;;
69392;SDS011;56582;44.624;20.378;2023-04-06T08:00:01;24.10;;;17.53;;
69392;SDS011;56582;44.624;20.378;2023-04-06T08:02:28;28.35;;;19.40;;
69392;SDS011;56582;44.624;20.378;2023-04-06T08:04:54;23.15;;;16.45;;
69392;SDS011;56582;44.624;20.378;2023-04-06T08:07:20;26.83;;;18.07;;
69392;SDS011;56582;44.624;20.378;2023-04-06T08:09:45;26.10;;;17.17;;
69392;SDS011;56582;44.624;20.378;2023-04-06T08:12:10;26.70;;;17.73;;
69392;SDS011;56582;44.624;20.378;2023-04-06T08:14:36;23.75;;;15.77;;
69392;SDS011;56582;44.624;20.378;2023-04-06T08:17:01;22.50;;;16.37;;
69392;SDS011;56582;44.624;20.378;2023-04-06T08:19:27;22.90;;;17.83;;
69392;SDS011;56582;44.624;20.378;2023-04-06T08:21:52;25.10;;;16.40;;
69392;SDS011;56582;44.624;20.378;2023-04-06T08:24:18;21.07;;;14.03;;
69392;SDS011;56582;44.624;20.378;2023-04-06T08:26:43;23.27;;;16.47;;
69392;SDS011;56582;44.624;20.378;2023-04-06T08:29:09;23.80;;;17.17;;
69392;SDS011;56582;44.624;20.378;2023-04-06T08:31:35;18.57;;;13.47;;
69392;SDS011;56582;44.624;20.378;2023-04-06T08:34:01;24.65;;;17.50;;
69392;SDS011;56582;44.624;20.378;2023-04-06T08:36:28;22.88;;;17.50;;
69392;SDS011;56582;44.624;20.378;2023-04-06T08:38:54;25.63;;;19.17;;
69392;SDS011;56582;44.624;20.378;2023-04-06T08:41:19;27.53;;;19.50;;
69392;SDS011;56582;44.624;20.378;2023-04-06T08:43:59;28.33;;;19.50;;
69392;SDS011;56582;44.624;20.378;2023-04-06T08:46:26;24.75;;;15.77;;
69392;SDS011;56582;44.624;20.378;2023-04-06T08:48:59;24.73;;;17.45;;
69392;SDS011;56582;44.624;20.378;2023-04-06T08:51:25;24.38;;;18.65;;
69392;SDS011;56582;44.624;20.378;2023-04-06T08:53:55;37.47;;;21.33;;
69392;SDS011;56582;44.624;20.378;2023-04-06T08:56:22;28.73;;;18.15;;
69392;SDS011;56582;44.624;20.378;2023-04-06T08:58:48;22.15;;;15.85;;
69392;SDS011;56582;44.624;20.378;2023-04-06T09:01:14;20.42;;;14.13;;
69392;SDS011;56582;44.624;20.378;2023-04-06T09:03:45;23.65;;;16.13;;
69392;SDS011;56582;44.624;20.378;2023-04-06T09:06:11;26.23;;;16.13;;
69392;SDS011;56582;44.624;20.378;2023-04-06T09:08:39;24.45;;;14.77;;
69392;SDS011;56582;44.624;20.378;2023-04-06T09:11:05;26.50;;;17.42;;
69392;SDS011;56582;44.624;20.378;2023-04-06T09:13:31;26.45;;;19.33;;
69392;SDS011;56582;44.624;20.378;2023-04-06T09:18:33;22.40;;;14.57;;
69392;SDS011;56582;44.624;20.378;2023-04-06T09:23:28;25.45;;;18.15;;
69392;SDS011;56582;44.624;20.378;2023-04-06T09:26:13;17.60;;;12.40;;
69392;SDS011;56582;44.624;20.378;2023-04-06T09:31:20;24.13;;;18.13;;
69392;SDS011;56582;44.624;20.378;2023-04-06T09:33:57;18.10;;;14.20;;
69392;SDS011;56582;44.624;20.378;2023-04-06T09:36:33;20.63;;;14.48;;
69392;SDS011;56582;44.624;20.378;2023-04-06T09:39:05;21.65;;;15.68;;
69392;SDS011;56582;44.624;20.378;2023-04-06T09:41:32;27.77;;;18.43;;
69392;SDS011;56582;44.624;20.378;2023-04-06T09:44:05;24.45;;;19.20;;
69392;SDS011;56582;44.624;20.378;2023-04-06T09:46:32;16.83;;;13.10;;
69392;SDS011;56582;44.624;20.378;2023-04-06T09:49:02;18.60;;;14.05;;
69392;SDS011;56582;44.624;20.378;2023-04-06T09:51:30;19.75;;;14.50;;
69392;SDS011;56582;44.624;20.378;2023-04-06T09:54:06;20.67;;;14.23;;
69392;SDS011;56582;44.624;20.378;2023-04-06T10:01:53;23.25;;;16.55;;
69392;SDS011;56582;44.624;20.378;2023-04-06T10:07:09;21.60;;;17.67;;
69392;SDS011;56582;44.624;20.378;2023-04-06T10:09:40;24.05;;;16.13;;
69392;SDS011;56582;44.624;20.378;2023-04-06T10:12:09;18.08;;;12.95;;
69392;SDS011;56582;44.624;20.378;2023-04-06T10:14:34;17.50;;;13.87;;
69392;SDS011;56582;44.624;20.378;2023-04-06T10:17:03;18.88;;;14.57;;
69392;SDS011;56582;44.624;20.378;2023-04-06T10:19:34;25.83;;;16.83;;
69392;SDS011;56582;44.624;20.378;2023-04-06T10:22:09;25.33;;;16.48;;
69392;SDS011;56582;44.624;20.378;2023-04-06T10:24:38;29.15;;;18.92;;
69392;SDS011;56582;44.624;20.378;2023-04-06T10:27:03;32.50;;;20.07;;
69392;SDS011;56582;44.624;20.378;2023-04-06T10:29:46;29.58;;;19.60;;
69392;SDS011;56582;44.624;20.378;2023-04-06T10:32:13;27.43;;;18.17;;
69392;SDS011;56582;44.624;20.378;2023-04-06T10:34:39;20.92;;;12.75;;
69392;SDS011;56582;44.624;20.378;2023-04-06T10:37:14;19.40;;;12.43;;
69392;SDS011;56582;44.624;20.378;2023-04-06T10:40:17;22.35;;;15.23;;
69392;SDS011;56582;44.624;20.378;2023-04-06T10:42:42;20.10;;;11.90;;
69392;SDS011;56582;44.624;20.378;2023-04-06T10:45:18;22.87;;;17.20;;
69392;SDS011;56582;44.624;20.378;2023-04-06T10:47:45;24.45;;;18.20;;
69392;SDS011;56582;44.624;20.378;2023-04-06T10:50:11;19.37;;;15.30;;
69392;SDS011;56582;44.624;20.378;2023-04-06T10:52:40;21.50;;;16.83;;
69392;SDS011;56582;44.624;20.378;2023-04-06T10:55:05;18.27;;;12.30;;
69392;SDS011;56582;44.624;20.378;2023-04-06T10:57:33;21.38;;;15.25;;
69392;SDS011;56582;44.624;20.378;2023-04-06T11:00:01;20.08;;;17.23;;
69392;SDS011;56582;44.624;20.378;2023-04-06T11:02:28;23.20;;;16.77;;
69392;SDS011;56582;44.624;20.378;2023-04-06T11:04:57;21.33;;;13.07;;
69392;SDS011;56582;44.624;20.378;2023-04-06T11:07:26;17.15;;;13.20;;
69392;SDS011;56582;44.624;20.378;2023-04-06T11:09:54;24.20;;;18.30;;
69392;SDS011;56582;44.624;20.378;2023-04-06T11:12:26;25.47;;;15.57;;
69392;SDS011;56582;44.624;20.378;2023-04-06T11:17:35;20.67;;;15.68;;
69392;SDS011;56582;44.624;20.378;2023-04-06T11:20:01;19.42;;;13.38;;
69392;SDS011;56582;44.624;20.378;2023-04-06T11:22:28;21.45;;;15.63;;
69392;SDS011;56582;44.624;20.378;2023-04-06T11:25:07;20.83;;;14.63;;
69392;SDS011;56582;44.624;20.378;2023-04-06T11:27:33;18.52;;;13.55;;
69392;SDS011;56582;44.624;20.378;2023-04-06T11:30:00;21.10;;;15.45;;
69392;SDS011;56582;44.624;20.378;2023-04-06T11:32:26;22.50;;;14.67;;
69392;SDS011;56582;44.624;20.378;2023-04-06T11:34:52;17.58;;;12.25;;
69392;SDS011;56582;44.624;20.378;2023-04-06T11:37:17;19.67;;;15.27;;
69392;SDS011;56582;44.624;20.378;2023-04-06T11:42:20;19.83;;;14.40;;
69392;SDS011;56582;44.624;20.378;2023-04-06T11:44:49;25.80;;;18.45;;
69392;SDS011;56582;44.624;20.378;2023-04-06T11:47:34;26.77;;;18.35;;
69392;SDS011;56582;44.624;20.378;2023-04-06T11:50:11;18.05;;;12.25;;
69392;SDS011;56582;44.624;20.378;2023-04-06T11:52:41;23.60;;;15.90;;
69392;SDS011;56582;44.624;20.378;2023-04-06T11:55:17;21.87;;;14.53;;
69392;SDS011;56582;44.624;20.378;2023-04-06T11:57:43;20.77;;;14.82;;
69392;SDS011;56582;44.624;20.378;2023-04-06T12:00:10;20.83;;;14.60;;
69392;SDS011;56582;44.624;20.378;2023-04-06T12:02:36;20.25;;;13.70;;
69392;SDS011;56582;44.624;20.378;2023-04-06T12:05:03;22.20;;;14.65;;
69392;SDS011;56582;44.624;20.378;2023-04-06T12:07:30;21.60;;;14.70;;
69392;SDS011;56582;44.624;20.378;2023-04-06T12:09:56;20.33;;;15.20;;
69392;SDS011;56582;44.624;20.378;2023-04-06T12:12:21;20.58;;;14.52;;
69392;SDS011;56582;44.624;20.378;2023-04-06T12:14:47;18.97;;;11.33;;
69392;SDS011;56582;44.624;20.378;2023-04-06T12:17:12;23.67;;;14.80;;
69392;SDS011;56582;44.624;20.378;2023-04-06T12:19:38;23.02;;;13.60;;
69392;SDS011;56582;44.624;20.378;2023-04-06T12:22:03;21.60;;;14.30;;
69392;SDS011;56582;44.624;20.378;2023-04-06T12:24:29;22.33;;;15.30;;
69392;SDS011;56582;44.624;20.378;2023-04-06T12:26:54;22.13;;;14.13;;
69392;SDS011;56582;44.624;20.378;2023-04-06T12:29:20;23.63;;;16.13;;
69392;SDS011;56582;44.624;20.378;2023-04-06T12:31:46;19.85;;;15.32;;
69392;SDS011;56582;44.624;20.378;2023-04-06T12:34:11;20.50;;;14.03;;
69392;SDS011;56582;44.624;20.378;2023-04-06T12:36:37;24.93;;;15.77;;
69392;SDS011;56582;44.624;20.378;2023-04-06T12:39:03;20.08;;;13.88;;
69392;SDS011;56582;44.624;20.378;2023-04-06T12:41:29;18.65;;;13.02;;
69392;SDS011;56582;44.624;20.378;2023-04-06T12:43:55;20.70;;;15.03;;
69392;SDS011;56582;44.624;20.378;2023-04-06T12:46:21;21.10;;;15.98;;
69392;SDS011;56582;44.624;20.378;2023-04-06T12:48:47;19.10;;;12.68;;
69392;SDS011;56582;44.624;20.378;2023-04-06T12:51:13;19.10;;;14.33;;
69392;SDS011;56582;44.624;20.378;2023-04-06T12:53:38;23.98;;;16.23;;
69392;SDS011;56582;44.624;20.378;2023-04-06T12:56:10;17.80;;;13.90;;
69392;SDS011;56582;44.624;20.378;2023-04-06T12:58:40;12.82;;;9.13;;
69392;SDS011;56582;44.624;20.378;2023-04-06T13:01:06;17.25;;;12.90;;
69392;SDS011;56582;44.624;20.378;2023-04-06T13:03:32;12.95;;;9.88;;
69392;SDS011;56582;44.624;20.378;2023-04-06T13:05:58;21.07;;;13.40;;
69392;SDS011;56582;44.624;20.378;2023-04-06T13:08:25;19.30;;;12.75;;
69392;SDS011;56582;44.624;20.378;2023-04-06T13:10:51;23.00;;;15.47;;
69392;SDS011;56582;44.624;20.378;2023-04-06T13:13:21;20.65;;;11.77;;
69392;SDS011;56582;44.624;20.378;2023-04-06T13:15:50;21.80;;;16.55;;
69392;SDS011;56582;44.624;20.378;2023-04-06T13:18:16;15.73;;;11.35;;
69392;SDS011;56582;44.624;20.378;2023-04-06T13:20:42;14.67;;;9.70;;
69392;SDS011;56582;44.624;20.378;2023-04-06T13:23:08;18.17;;;13.45;;
69392;SDS011;56582;44.624;20.378;2023-04-06T13:25:34;14.18;;;9.82;;
69392;SDS011;56582;44.624;20.378;2023-04-06T13:28:00;20.57;;;14.27;;
69392;SDS011;56582;44.624;20.378;2023-04-06T13:30:26;18.58;;;13.80;;
69392;SDS011;56582;44.624;20.378;2023-04-06T13:32:51;16.07;;;11.77;;
69392;SDS011;56582;44.624;20.378;2023-04-06T13:35:17;16.60;;;12.13;;
69392;SDS011;56582;44.624;20.378;2023-04-06T13:37:43;17.20;;;12.27;;
69392;SDS011;56582;44.624;20.378;2023-04-06T13:40:09;16.60;;;12.33;;
69392;SDS011;56582;44.624;20.378;2023-04-06T13:42:36;19.38;;;13.50;;
69392;SDS011;56582;44.624;20.378;2023-04-06T13:45:05;14.63;;;10.55;;
69392;SDS011;56582;44.624;20.378;2023-04-06T13:47:30;20.83;;;14.68;;
69392;SDS011;56582;44.624;20.378;2023-04-06T13:49:56;21.97;;;14.33;;
69392;SDS011;56582;44.624;20.378;2023-04-06T13:52:21;21.47;;;15.87;;
69392;SDS011;56582;44.624;20.378;2023-04-06T13:54:48;18.70;;;12.98;;
69392;SDS011;56582;44.624;20.378;2023-04-06T13:57:13;19.47;;;14.67;;
69392;SDS011;56582;44.624;20.378;2023-04-06T13:59:39;19.20;;;13.30;;
69392;SDS011;56582;44.624;20.378;2023-04-06T14:02:05;24.27;;;16.70;;
69392;SDS011;56582;44.624;20.378;2023-04-06T14:04:32;26.23;;;16.05;;
69392;SDS011;56582;44.624;20.378;2023-04-06T14:06:58;20.10;;;13.95;;
69392;SDS011;56582;44.624;20.378;2023-04-06T14:09:25;23.93;;;14.33;;
69392;SDS011;56582;44.624;20.378;2023-04-06T14:11:50;23.85;;;14.38;;
69392;SDS011;56582;44.624;20.378;2023-04-06T14:14:19;30.60;;;16.73;;
69392;SDS011;56582;44.624;20.378;2023-04-06T14:16:53;17.55;;;12.95;;
69392;SDS011;56582;44.624;20.378;2023-04-06T14:19:19;18.23;;;12.57;;
69392;SDS011;56582;44.624;20.378;2023-04-06T14:21:46;20.33;;;13.97;;
69392;SDS011;56582;44.624;20.378;2023-04-06T14:24:12;18.42;;;13.55;;
69392;SDS011;56582;44.624;20.378;2023-04-06T14:26:38;23.00;;;16.10;;